createdAt,value
2018-01-24T00:00:12.579Z,86.30
2018-01-24T00:02:40.107Z,86.20
2018-01-24T00:05:07.622Z,86.10
2018-01-24T00:07:35.144Z,86.80
2018-01-24T00:10:02.701Z,86.50
2018-01-24T00:12:30.197Z,86.30
2018-01-24T00:14:57.716Z,86.10
2018-01-24T00:17:25.240Z,87.20
2018-01-24T00:19:52.778Z,87.20
2018-01-24T00:22:21.069Z,87.30
2018-01-24T00:24:49.340Z,87.30
2018-01-24T00:27:16.873Z,87.30
2018-01-24T00:29:44.376Z,87.30
2018-01-24T00:32:11.884Z,87.40
2018-01-24T00:34:39.459Z,87.40
2018-01-24T00:37:06.965Z,87.40
2018-01-24T00:39:34.488Z,87.40
2018-01-24T00:42:01.991Z,87.20
2018-01-24T00:44:30.360Z,86.50
2018-01-24T00:46:58.635Z,86.90
2018-01-24T00:49:26.166Z,86.30
2018-01-24T00:51:53.684Z,86.50
2018-01-24T00:54:21.207Z,86.90
2018-01-24T00:56:48.707Z,86.90
2018-01-24T00:59:17.012Z,87.50
2018-01-24T01:01:45.284Z,87.50
2018-01-24T01:04:12.808Z,87.50
2018-01-24T01:06:40.308Z,87.60
2018-01-24T01:09:07.841Z,87.40
2018-01-24T01:11:35.366Z,87.30
2018-01-24T01:14:02.910Z,86.40
2018-01-24T01:16:30.426Z,86.00
2018-01-24T01:18:58.462Z,87.00
2018-01-24T01:21:26.032Z,87.60
2018-01-24T01:23:53.570Z,87.50
2018-01-24T01:26:21.873Z,87.70
2018-01-24T01:28:50.191Z,87.70
2018-01-24T01:31:18.436Z,87.70
2018-01-24T01:33:45.979Z,87.80
2018-01-24T01:36:13.511Z,87.80
2018-01-24T01:38:41.049Z,88.60
2018-01-24T01:41:08.581Z,87.80
2018-01-24T01:43:36.139Z,88.40
2018-01-24T01:46:03.671Z,88.70
2018-01-24T01:48:31.957Z,88.60
2018-01-24T01:50:59.512Z,88.50
2018-01-24T01:53:27.049Z,88.60
2018-01-24T01:55:55.368Z,88.70
2018-01-24T01:58:22.900Z,88.60
2018-01-24T02:00:50.441Z,89.00
2018-01-24T02:03:18.523Z,89.50
2018-01-24T02:05:46.112Z,89.30
2018-01-24T02:08:14.215Z,89.00
2018-01-24T02:10:41.745Z,89.90
2018-01-24T02:13:09.284Z,89.90
2018-01-24T02:15:36.834Z,90.00
2018-01-24T02:18:04.370Z,89.50
2018-01-24T02:20:31.911Z,90.00
2018-01-24T02:23:00.205Z,90.40
2018-01-24T02:25:27.764Z,90.40
2018-01-24T02:27:55.301Z,90.00
2018-01-24T02:30:22.848Z,90.20
2018-01-24T02:32:50.366Z,90.20
2018-01-24T02:35:18.882Z,90.10
2018-01-24T02:37:46.428Z,90.20
2018-01-24T02:40:13.971Z,90.10
2018-01-24T02:42:41.496Z,90.20
2018-01-24T02:45:09.030Z,90.10
2018-01-24T02:47:36.560Z,89.90
2018-01-24T02:50:04.103Z,89.90
2018-01-24T02:52:31.641Z,89.90
2018-01-24T02:54:59.186Z,90.00
2018-01-24T02:57:26.720Z,90.00
2018-01-24T02:59:55.039Z,90.10
2018-01-24T03:02:22.594Z,90.00
2018-01-24T03:04:50.129Z,90.00
2018-01-24T03:07:18.508Z,90.10
2018-01-24T03:09:46.045Z,89.90
2018-01-24T03:12:13.606Z,89.80
2018-01-24T03:14:41.144Z,90.00
2018-01-24T03:17:09.451Z,90.00
2018-01-24T03:19:37.743Z,90.30
2018-01-24T03:22:05.293Z,90.30
2018-01-24T03:24:32.816Z,90.20
2018-01-24T03:27:01.137Z,90.30
2018-01-24T03:29:28.672Z,90.30
2018-01-24T03:31:56.228Z,90.40
2018-01-24T03:34:23.765Z,90.40
2018-01-24T03:36:52.070Z,90.10
2018-01-24T03:39:20.363Z,90.50
2018-01-24T03:41:48.821Z,90.20
2018-01-24T03:44:16.389Z,90.30
2018-01-24T03:46:43.933Z,90.30
2018-01-24T03:49:11.460Z,90.40
2018-01-24T03:51:39.017Z,90.40
2018-01-24T03:54:07.305Z,90.80
2018-01-24T03:56:34.856Z,90.80
2018-01-24T03:59:02.393Z,90.90
2018-01-24T04:01:30.708Z,91.20
2018-01-24T04:03:58.249Z,91.10
2018-01-24T04:06:25.790Z,91.20
2018-01-24T04:08:53.310Z,91.20
2018-01-24T04:11:20.862Z,91.30
2018-01-24T04:13:48.626Z,91.30
2018-01-24T04:16:17.458Z,91.30
2018-01-24T04:18:44.978Z,91.30
2018-01-24T04:21:12.532Z,91.60
2018-01-24T04:23:40.059Z,91.60
2018-01-24T04:26:07.614Z,91.80
2018-01-24T04:28:35.138Z,91.80
2018-01-24T04:31:02.660Z,92.20
2018-01-24T04:33:30.199Z,92.00
2018-01-24T04:35:57.736Z,92.00
2018-01-24T04:38:25.279Z,92.00
2018-01-24T04:40:52.803Z,92.20
2018-01-24T04:43:20.345Z,92.10
2018-01-24T04:45:48.697Z,92.20
2018-01-24T04:48:16.910Z,92.30
2018-01-24T04:50:44.440Z,92.40
2018-01-24T04:53:12.746Z,92.40
2018-01-24T04:55:41.049Z,92.40
2018-01-24T04:58:09.363Z,92.40
2018-01-24T05:00:36.905Z,92.40
2018-01-24T05:03:04.459Z,92.40
2018-01-24T05:05:31.989Z,92.40
2018-01-24T05:07:59.547Z,92.40
2018-01-24T05:10:27.067Z,92.40
2018-01-24T05:12:55.375Z,92.40
2018-01-24T05:15:23.677Z,92.40
2018-01-24T05:17:51.988Z,92.60
2018-01-24T05:20:24.732Z,92.70
2018-01-24T05:22:52.296Z,92.70
2018-01-24T05:25:19.818Z,92.80
2018-01-24T05:27:48.966Z,93.20
2018-01-24T05:30:17.393Z,93.20
2018-01-24T05:32:44.940Z,93.30
2018-01-24T05:35:12.461Z,93.50
2018-01-24T05:37:40.012Z,93.40
2018-01-24T05:40:07.530Z,93.40
2018-01-24T05:42:35.086Z,93.40
2018-01-24T05:45:02.621Z,93.60
2018-01-24T05:47:30.182Z,93.70
2018-01-24T05:49:57.707Z,93.90
2018-01-24T05:52:25.241Z,93.80
2018-01-24T05:54:53.543Z,93.90
2018-01-24T05:57:21.830Z,94.00
2018-01-24T05:59:49.383Z,94.00
2018-01-24T06:02:16.985Z,94.20
2018-01-24T06:04:44.529Z,94.20
2018-01-24T06:07:12.050Z,94.40
2018-01-24T06:09:39.591Z,94.50
2018-01-24T06:12:07.118Z,94.60
2018-01-24T06:14:34.673Z,94.80
2018-01-24T06:17:02.198Z,94.80
2018-01-24T06:19:29.757Z,94.90
2018-01-24T06:21:57.295Z,94.90
2018-01-24T06:24:25.608Z,94.80
2018-01-24T06:26:53.146Z,94.80
2018-01-24T06:29:20.711Z,94.90
2018-01-24T06:31:49.078Z,95.00
2018-01-24T06:34:16.619Z,95.00
2018-01-24T06:36:44.152Z,95.10
2018-01-24T06:39:11.700Z,95.10
2018-01-24T06:41:39.990Z,95.30
2018-01-24T06:44:07.533Z,95.30
2018-01-24T06:46:35.078Z,95.40
2018-01-24T06:49:03.383Z,95.50
2018-01-24T06:51:31.673Z,95.50
2018-01-24T06:53:59.236Z,95.50
2018-01-24T06:56:26.762Z,95.70
2018-01-24T06:58:54.310Z,95.50
2018-01-24T07:01:21.829Z,95.50
2018-01-24T07:03:50.139Z,95.80
2018-01-24T07:06:18.474Z,95.50
2018-01-24T07:08:46.010Z,95.50
2018-01-24T07:11:14.330Z,95.30
2018-01-24T07:13:53.505Z,95.30
2018-01-24T07:16:21.053Z,95.40
2018-01-24T07:18:49.338Z,95.30
2018-01-24T07:21:17.544Z,95.30
2018-01-24T07:23:45.084Z,95.10
2018-01-24T07:26:12.644Z,95.20
2018-01-24T07:28:40.170Z,95.10
2018-01-24T07:31:07.710Z,95.00
2018-01-24T07:33:35.291Z,95.10
2018-01-24T07:36:03.600Z,95.30
2018-01-24T07:38:31.157Z,95.00
2018-01-24T07:40:59.477Z,94.70
2018-01-24T07:43:26.998Z,94.70
2018-01-24T07:45:54.548Z,94.50
2018-01-24T07:48:22.087Z,94.60
2018-01-24T07:50:49.626Z,94.50
2018-01-24T07:53:18.252Z,94.30
2018-01-24T07:55:45.809Z,94.20
2018-01-24T07:58:13.343Z,93.90
2018-01-24T08:00:40.901Z,93.90
2018-01-24T08:03:08.423Z,93.70
2018-01-24T08:05:35.958Z,93.60
2018-01-24T08:08:03.489Z,93.50
2018-01-24T08:10:31.033Z,93.40
2018-01-24T08:12:58.565Z,93.30
2018-01-24T08:15:26.119Z,93.10
2018-01-24T08:17:53.638Z,93.20
2018-01-24T08:20:21.165Z,93.10
2018-01-24T08:22:48.720Z,93.10
2018-01-24T08:25:17.052Z,92.70
2018-01-24T08:27:44.605Z,92.70
2018-01-24T08:30:12.908Z,92.60
2018-01-24T08:32:41.229Z,92.50
2018-01-24T08:35:08.753Z,92.50
2018-01-24T08:37:36.310Z,92.40
2018-01-24T08:40:03.829Z,92.40
2018-01-24T08:42:31.373Z,92.40
2018-01-24T08:44:58.898Z,92.50
2018-01-24T08:47:26.439Z,92.30
2018-01-24T08:49:53.980Z,92.20
2018-01-24T08:52:21.521Z,91.80
2018-01-24T08:54:49.043Z,91.90
2018-01-24T08:57:16.794Z,91.80
2018-01-24T09:00:01.964Z,91.60
2018-01-24T09:02:48.095Z,91.60
2018-01-24T09:05:33.256Z,91.60
2018-01-24T09:08:19.582Z,91.40
2018-01-24T09:11:04.658Z,91.40
2018-01-24T09:13:49.924Z,91.40
2018-01-24T09:16:35.226Z,91.40
2018-01-24T09:19:20.335Z,91.40
2018-01-24T09:22:05.523Z,91.00
2018-01-24T09:24:59.496Z,91.00
2018-01-24T09:27:27.826Z,90.80
2018-01-24T09:29:56.111Z,90.90
2018-01-24T09:32:23.654Z,90.80
2018-01-24T09:34:51.205Z,90.80
2018-01-24T09:37:19.516Z,90.50
2018-01-24T09:39:47.096Z,90.50
2018-01-24T09:42:14.645Z,90.60
2018-01-24T09:44:42.162Z,90.40
2018-01-24T09:47:09.698Z,90.30
2018-01-24T09:49:37.254Z,90.10
2018-01-24T09:52:04.780Z,90.10
2018-01-24T09:54:32.355Z,89.70
2018-01-24T09:56:59.893Z,89.60
2018-01-24T09:59:27.449Z,89.70
2018-01-24T10:01:55.007Z,89.70
2018-01-24T10:04:22.550Z,89.80
2018-01-24T10:06:50.092Z,89.50
2018-01-24T10:09:18.410Z,89.20
2018-01-24T10:11:46.736Z,89.00
2018-01-24T10:14:14.282Z,89.00
2018-01-24T10:16:42.571Z,89.20
2018-01-24T10:19:10.120Z,89.10
2018-01-24T10:21:37.648Z,89.10
2018-01-24T10:24:05.193Z,88.90
2018-01-24T10:26:32.723Z,89.00
2018-01-24T10:29:01.052Z,87.30
2018-01-24T10:31:28.598Z,87.30
2018-01-24T10:33:56.148Z,87.00
2018-01-24T10:36:23.675Z,86.80
2018-01-24T10:38:51.995Z,86.50
2018-01-24T10:41:20.286Z,86.60
2018-01-24T10:43:48.606Z,87.30
2018-01-24T10:46:16.160Z,86.70
2018-01-24T10:48:43.725Z,86.40
2018-01-24T10:51:11.261Z,86.90
2018-01-24T10:53:38.801Z,86.30
2018-01-24T10:56:07.124Z,86.30
2018-01-24T10:58:35.436Z,86.10
2018-01-24T11:01:03.749Z,85.50
2018-01-24T11:03:31.280Z,85.40
2018-01-24T11:05:59.675Z,85.30
2018-01-24T11:08:27.201Z,85.30
2018-01-24T11:10:55.514Z,84.80
2018-01-24T11:13:23.860Z,84.60
2018-01-24T11:15:51.395Z,84.60
2018-01-24T11:18:19.700Z,83.90
2018-01-24T11:20:48.259Z,83.90
2018-01-24T11:23:17.283Z,82.60
2018-01-24T11:25:44.893Z,82.60
2018-01-24T11:28:12.434Z,82.50
2018-01-24T11:30:40.025Z,82.60
2018-01-24T11:33:07.675Z,82.60
2018-01-24T11:35:35.271Z,82.30
2018-01-24T11:38:02.797Z,81.80
2018-01-24T11:40:30.357Z,82.40
2018-01-24T11:42:57.899Z,82.00
2018-01-24T11:45:26.220Z,82.70
2018-01-24T11:47:54.945Z,82.60
2018-01-24T11:50:22.882Z,81.90
2018-01-24T11:52:50.527Z,81.90
2018-01-24T11:55:18.084Z,82.30
2018-01-24T11:57:46.375Z,81.10
2018-01-24T12:00:13.932Z,81.10
2018-01-24T12:02:41.468Z,82.10
2018-01-24T12:05:09.022Z,80.80
2018-01-24T12:07:36.849Z,80.70
2018-01-24T12:10:04.391Z,80.50
2018-01-24T12:12:32.110Z,80.10
2018-01-24T12:15:00.136Z,79.70
2018-01-24T12:17:27.969Z,79.80
2018-01-24T12:19:55.689Z,79.40
2018-01-24T12:22:23.226Z,79.90
2018-01-24T12:24:50.774Z,79.30
2018-01-24T12:27:18.321Z,79.50
2018-01-24T12:29:46.611Z,79.70
2018-01-24T12:32:14.165Z,79.70
2018-01-24T12:34:41.690Z,79.90
2018-01-24T12:37:09.244Z,79.70
2018-01-24T12:39:37.280Z,79.80
2018-01-24T12:42:05.601Z,80.30
2018-01-24T12:44:33.135Z,80.30
2018-01-24T12:47:00.693Z,80.10
2018-01-24T12:49:28.243Z,80.10
2018-01-24T12:51:55.814Z,79.20
2018-01-24T12:54:24.122Z,79.20
2018-01-24T12:56:52.451Z,79.20
2018-01-24T12:59:20.419Z,79.20
2018-01-24T13:01:48.748Z,78.70
2018-01-24T13:04:16.335Z,78.70
2018-01-24T13:06:43.883Z,79.70
2018-01-24T13:09:11.462Z,78.70
2018-01-24T13:11:39.090Z,78.00
2018-01-24T13:14:06.870Z,78.00
2018-01-24T13:16:34.428Z,78.40
2018-01-24T13:19:02.784Z,78.00
2018-01-24T13:21:30.335Z,77.80
2018-01-24T13:23:58.753Z,78.30
2018-01-24T13:26:26.302Z,78.30
2018-01-24T13:28:53.841Z,78.30
2018-01-24T13:31:21.405Z,78.20
2018-01-24T13:33:48.930Z,78.40
2018-01-24T13:36:16.489Z,78.40
2018-01-24T13:38:44.028Z,78.00
2018-01-24T13:41:12.372Z,78.10
2018-01-24T13:43:39.895Z,78.10
2018-01-24T13:46:07.436Z,77.90
2018-01-24T13:48:34.983Z,78.00
2018-01-24T13:51:03.568Z,78.10
2018-01-24T13:53:31.109Z,78.10
2018-01-24T13:55:58.634Z,77.80
2018-01-24T13:58:26.209Z,77.90
2018-01-24T14:00:53.744Z,78.50
2018-01-24T14:03:21.301Z,78.70
2018-01-24T14:05:48.834Z,78.80
2018-01-24T14:08:16.393Z,79.50
2018-01-24T14:10:44.680Z,79.20
2018-01-24T14:13:12.241Z,79.20
2018-01-24T14:15:39.863Z,78.80
2018-01-24T14:18:08.791Z,79.70
2018-01-24T14:20:36.597Z,79.60
2018-01-24T14:23:04.262Z,79.90
2018-01-24T14:25:31.790Z,79.80
2018-01-24T14:27:59.339Z,79.90
2018-01-24T14:30:26.878Z,80.50
2018-01-24T14:32:54.452Z,80.10
2018-01-24T14:35:21.987Z,80.50
2018-01-24T14:37:49.602Z,80.40
2018-01-24T14:40:17.136Z,81.00
2018-01-24T14:42:45.446Z,82.10
2018-01-24T14:45:13.743Z,81.90
2018-01-24T14:47:42.796Z,81.40
2018-01-24T14:50:10.341Z,81.80
2018-01-24T14:52:38.666Z,82.10
2018-01-24T14:55:06.194Z,82.00
2018-01-24T14:57:34.983Z,81.90
2018-01-24T15:00:02.519Z,81.80
2018-01-24T15:02:30.063Z,81.70
2018-01-24T15:04:57.605Z,81.90
2018-01-24T15:07:25.912Z,83.00
2018-01-24T15:09:54.233Z,83.00
2018-01-24T15:12:21.768Z,83.10
2018-01-24T15:14:49.319Z,83.30
2018-01-24T15:17:16.838Z,83.50
2018-01-24T15:19:44.391Z,84.10
2018-01-24T15:22:11.945Z,84.20
2018-01-24T15:24:39.538Z,84.50
2018-01-24T15:27:08.010Z,84.60
2018-01-24T15:29:36.953Z,86.10
2018-01-24T15:32:04.492Z,86.00
2018-01-24T15:34:32.034Z,85.80
2018-01-24T15:37:00.509Z,86.80
2018-01-24T15:39:28.827Z,86.90
2018-01-24T15:41:56.397Z,86.90
2018-01-24T15:44:24.719Z,87.80
2018-01-24T15:46:52.272Z,87.70
2018-01-24T15:49:19.883Z,87.60
2018-01-24T15:51:47.414Z,87.70
2018-01-24T15:54:15.759Z,88.30
2018-01-24T15:56:44.066Z,88.40
2018-01-24T15:59:12.392Z,90.00
2018-01-24T16:01:39.928Z,90.00
2018-01-24T16:04:07.470Z,90.10
2018-01-24T16:06:35.060Z,90.10
2018-01-24T16:09:02.594Z,90.10
2018-01-24T16:11:30.884Z,90.40
2018-01-24T16:13:58.429Z,90.40
2018-01-24T16:16:25.961Z,90.10
2018-01-24T16:18:53.516Z,90.10
2018-01-24T16:21:21.843Z,90.10
2018-01-24T16:23:49.381Z,90.10
2018-01-24T16:26:16.941Z,90.00
2018-01-24T16:28:44.482Z,90.00
2018-01-24T16:31:12.035Z,90.00
2018-01-24T16:33:39.562Z,90.00
2018-01-24T16:36:08.336Z,90.00
2018-01-24T16:38:35.861Z,89.90
2018-01-24T16:41:03.406Z,89.80
2018-01-24T16:43:30.931Z,90.60
2018-01-24T16:45:59.080Z,90.40
2018-01-24T16:48:26.625Z,90.20
2018-01-24T16:50:54.194Z,90.20
2018-01-24T16:53:21.729Z,90.50
2018-01-24T16:55:49.274Z,90.40
2018-01-24T16:58:17.562Z,90.50
2018-01-24T17:00:45.117Z,90.40
2018-01-24T17:03:12.659Z,90.20
2018-01-24T17:05:40.975Z,90.30
2018-01-24T17:08:09.279Z,90.20
2018-01-24T17:10:37.465Z,90.10
2018-01-24T17:13:05.742Z,90.20
2018-01-24T17:15:33.285Z,90.20
2018-01-24T17:18:00.803Z,90.30
2018-01-24T17:20:28.355Z,90.50
2018-01-24T17:22:55.875Z,90.40
2018-01-24T17:25:23.427Z,90.40
2018-01-24T17:27:50.946Z,90.40
2018-01-24T17:30:19.236Z,90.70
2018-01-24T17:32:46.789Z,90.50
2018-01-24T17:35:14.320Z,90.40
2018-01-24T17:37:42.413Z,90.60
2018-01-24T17:40:09.944Z,90.40
2018-01-24T17:42:37.500Z,90.40
2018-01-24T17:45:05.805Z,90.30
2018-01-24T17:47:34.114Z,90.20
2018-01-24T17:50:02.409Z,90.20
2018-01-24T17:52:30.737Z,90.20
2018-01-24T17:54:58.254Z,90.20
2018-01-24T17:57:25.843Z,90.30
2018-01-24T17:59:53.381Z,90.20
2018-01-24T18:02:20.922Z,90.20
2018-01-24T18:04:48.503Z,89.80
2018-01-24T18:07:16.116Z,89.70
2018-01-24T18:09:44.428Z,89.70
2018-01-24T18:12:12.804Z,89.30
2018-01-24T18:14:40.383Z,89.20
2018-01-24T18:17:08.671Z,89.30
2018-01-24T18:19:36.241Z,89.00
2018-01-24T18:22:03.783Z,88.60
2018-01-24T18:24:32.132Z,88.00
2018-01-24T18:26:59.693Z,88.00
2018-01-24T18:29:27.265Z,87.80
2018-01-24T18:31:54.820Z,88.10
2018-01-24T18:34:22.406Z,88.00
2018-01-24T18:36:50.052Z,87.80
2018-01-24T18:39:17.625Z,87.60
2018-01-24T18:41:45.183Z,87.70
2018-01-24T18:44:13.544Z,87.40
2018-01-24T18:46:41.109Z,87.40
2018-01-24T18:49:09.330Z,87.20
2018-01-24T18:51:37.393Z,87.50
2018-01-24T18:54:04.979Z,86.60
2018-01-24T18:56:32.554Z,86.50
2018-01-24T18:59:00.112Z,86.60
2018-01-24T19:01:28.403Z,85.70
2018-01-24T19:03:56.002Z,85.70
2018-01-24T19:06:24.351Z,86.20
2018-01-24T19:08:51.901Z,86.10
2018-01-24T19:11:19.486Z,86.10
2018-01-24T19:13:47.047Z,85.60
2018-01-24T19:16:14.585Z,85.70
2018-01-24T19:18:42.125Z,85.30
2018-01-24T19:21:10.428Z,84.40
2018-01-24T19:23:38.738Z,84.40
2018-01-24T19:26:07.527Z,84.10
2018-01-24T19:28:35.076Z,84.10
2018-01-24T19:31:02.609Z,84.00
2018-01-24T19:33:30.926Z,83.70
2018-01-24T19:35:59.227Z,83.80
2018-01-24T19:38:27.572Z,84.20
2018-01-24T19:40:55.136Z,84.20
2018-01-24T19:43:22.720Z,84.40
2018-01-24T19:45:50.254Z,83.80
2018-01-24T19:48:19.373Z,83.90
2018-01-24T19:50:46.960Z,84.50
2018-01-24T19:53:14.506Z,84.30
2018-01-24T19:55:42.039Z,84.30
2018-01-24T19:58:09.639Z,84.20
2018-01-24T20:00:38.661Z,84.60
2018-01-24T20:03:06.259Z,84.50
2018-01-24T20:05:34.607Z,84.80
2018-01-24T20:08:02.182Z,84.20
2018-01-24T20:10:29.783Z,84.40
2018-01-24T20:12:57.309Z,84.50
2018-01-24T20:15:25.663Z,84.20
2018-01-24T20:17:53.183Z,84.10
2018-01-24T20:20:21.511Z,83.80
2018-01-24T20:22:49.091Z,83.80
2018-01-24T20:25:16.639Z,83.80
2018-01-24T20:27:44.182Z,83.70
2018-01-24T20:30:11.743Z,83.90
2018-01-24T20:32:39.267Z,83.70
2018-01-24T20:35:06.821Z,83.20
2018-01-24T20:37:34.348Z,83.40
2018-01-24T20:40:01.889Z,83.20
2018-01-24T20:42:29.429Z,84.00
2018-01-24T20:44:56.987Z,82.80
2018-01-24T20:47:24.547Z,83.10
2018-01-24T20:49:52.104Z,82.50
2018-01-24T20:52:20.395Z,82.50
2018-01-24T20:54:48.786Z,83.50
2018-01-24T20:57:16.310Z,83.00
2018-01-24T20:59:43.841Z,82.30
2018-01-24T21:02:12.194Z,82.90
2018-01-24T21:04:39.804Z,82.80
2018-01-24T21:07:08.978Z,82.30
2018-01-24T21:09:37.589Z,82.50
2018-01-24T21:12:05.887Z,82.30
2018-01-24T21:14:34.199Z,82.00
2018-01-24T21:17:02.543Z,82.30
2018-01-24T21:19:30.109Z,82.30
2018-01-24T21:21:57.707Z,81.50
2018-01-24T21:24:25.282Z,82.00
2018-01-24T21:26:52.880Z,82.00
2018-01-24T21:29:32.438Z,81.40
2018-01-24T21:32:11.870Z,81.80
2018-01-24T21:34:51.967Z,82.20
2018-01-24T21:37:19.505Z,82.20
2018-01-24T21:39:47.042Z,81.60
2018-01-24T21:42:14.638Z,81.70
2018-01-24T21:44:42.158Z,82.00
2018-01-24T21:47:09.754Z,82.00
2018-01-24T21:49:38.172Z,82.60
2018-01-24T21:52:06.805Z,82.00
2018-01-24T21:54:34.397Z,82.50
2018-01-24T21:57:04.290Z,82.50
2018-01-24T21:59:31.871Z,83.00
2018-01-24T22:01:59.410Z,82.30
2018-01-24T22:04:26.940Z,82.90
2018-01-24T22:06:54.493Z,82.60
2018-01-24T22:09:22.081Z,82.20
2018-01-24T22:11:49.676Z,82.30
2018-01-24T22:14:17.213Z,82.20
2018-01-24T22:16:45.532Z,82.00
2018-01-24T22:19:13.115Z,81.90
2018-01-24T22:21:41.464Z,82.30
2018-01-24T22:24:08.989Z,82.30
2018-01-24T22:26:38.211Z,82.10
2018-01-24T22:29:08.189Z,82.20
2018-01-24T22:31:35.748Z,82.20
2018-01-24T22:34:03.503Z,82.00
2018-01-24T22:36:31.084Z,82.50
2018-01-24T22:38:58.638Z,82.20
2018-01-24T22:41:26.227Z,82.20
2018-01-24T22:43:53.762Z,82.40
2018-01-24T22:46:22.116Z,82.50
2018-01-24T22:48:49.673Z,82.50
2018-01-24T22:51:22.869Z,82.20
2018-01-24T22:53:50.415Z,82.30
2018-01-24T22:56:18.736Z,83.60
2018-01-24T22:58:47.033Z,82.50
2018-01-24T23:01:15.328Z,82.60
2018-01-24T23:03:43.640Z,82.60
2018-01-24T23:06:11.929Z,82.60
2018-01-24T23:08:40.255Z,82.30
2018-01-24T23:11:07.796Z,82.20
2018-01-24T23:13:36.127Z,82.60
2018-01-24T23:16:04.424Z,82.40
2018-01-24T23:18:31.981Z,82.40
2018-01-24T23:20:59.503Z,82.90
2018-01-24T23:23:27.805Z,83.00
2018-01-24T23:25:56.090Z,82.50
2018-01-24T23:28:25.129Z,83.10
2018-01-24T23:30:53.404Z,83.10
2018-01-24T23:33:20.975Z,83.00
2018-01-24T23:35:48.469Z,83.00
2018-01-24T23:38:16.001Z,82.60
2018-01-24T23:40:44.280Z,83.00
2018-01-24T23:43:11.814Z,83.00
2018-01-24T23:45:39.338Z,83.20
2018-01-24T23:48:06.888Z,82.90
2018-01-24T23:50:34.396Z,82.90
2018-01-24T23:53:01.935Z,82.70
2018-01-24T23:55:29.447Z,82.70
2018-01-24T23:57:57.002Z,82.70
